Time;durP1;ratioP1;P1;durP2;ratioP2;P2;SDS_P1;SDS_P2;PMS_P1;PMS_P2;Temp;Humidity;BMP_temperature;BMP_pressure;BME280_temperature;BME280_humidity;BME280_pressure;Samples;Min_cycle;Max_cycle;Signal;HPM_P1;HPM_P2
2021/06/04 02:09:10;;;;;;;;;;;;;;;13.98;100.00;99974.09;5570273;23;19949;-86
2021/06/04 02:11:36;;;;;;;;;;;;;;;13.98;100.00;99977.59;5023269;28;19925;-86
2021/06/04 02:14:04;;;;;;;;;;;;;;;14.04;100.00;99979.09;5024110;28;19968;-86
2021/06/04 02:16:41;;;;;;;;;;;;;;;13.97;100.00;99980.34;5006977;28;20000;-86
2021/06/04 02:19:21;;;;;;;;;;;;;;;14.03;100.00;99982.69;5022459;28;19922;-86
2021/06/04 02:21:52;;;;;;;;;;;;;;;13.98;100.00;99985.59;5022031;28;20329;-86
2021/06/04 02:24:22;;;;;;;;;;;;;;;13.96;100.00;99990.16;5024170;28;20244;-85
2021/06/04 02:26:53;;;;;;;;;;;;;;;13.99;100.00;99989.97;5022707;28;20031;-87
2021/06/04 02:29:24;;;;;;;;;;;;;;;14.01;100.00;99992.56;5002321;28;19995;-88
2021/06/04 02:32:04;;;;;;;;;;;;;;;14.03;100.00;99996.00;5020471;28;19940;-87
2021/06/04 02:34:36;;;;;;;;;;;;;;;14.05;100.00;99993.25;5019857;28;19921;-84
2021/06/04 02:37:05;;;;;;;;;;;;;;;13.99;100.00;99999.75;5017314;28;19922;-84
2021/06/04 02:39:34;;;;;;;;;;;;;;;13.95;100.00;99996.41;5016982;28;20284;-84
2021/06/04 02:42:01;;;;;;;;;;;;;;;14.02;100.00;99988.09;5016591;28;19988;-84
2021/06/04 02:44:29;;;;;;;;;;;;;;;14.00;100.00;99990.84;5017236;28;19983;-85
2021/06/04 02:46:58;;;;;;;;;;;;;;;13.98;100.00;99985.59;5016582;28;19925;-85
2021/06/04 02:49:24;;;;;;;;;;;;;;;13.93;100.00;99998.31;5016472;28;19937;-84
2021/06/04 02:51:53;;;;;;;;;;;;;;;13.91;100.00;99992.19;5017812;28;20424;-85
2021/06/04 02:54:22;;;;;;;;;;;;;;;13.93;100.00;99984.13;5017145;28;19921;-84
2021/06/04 02:56:51;;;;;;;;;;;;;;;13.89;100.00;99990.56;5017164;28;19986;-84
2021/06/04 02:59:21;;;;;;;;;;;;;;;13.88;100.00;99989.69;5018033;28;19980;-85
2021/06/04 03:01:51;;;;;;;;;;;;;;;13.95;100.00;99987.56;5017364;28;19988;-85
2021/06/04 03:04:17;;;;;;;;;;;;;;;13.94;100.00;99986.69;5017179;28;19917;-85
2021/06/04 03:06:44;;;;;;;;;;;;;;;13.93;100.00;99984.13;5017148;28;20340;-84
2021/06/04 03:09:12;;;;;;;;;;;;;;;13.92;100.00;99983.25;5017076;28;19983;-84
2021/06/04 03:11:39;;;;;;;;;;;;;;;13.84;100.00;99984.63;5016408;28;19929;-85
2021/06/04 03:14:06;;;;;;;;;;;;;;;13.85;100.00;99986.31;5016130;28;20004;-85
2021/06/04 03:16:31;;;;;;;;;;;;;;;13.87;100.00;99990.63;5016209;28;20326;-85
2021/06/04 03:19:00;;;;;;;;;;;;;;;13.87;100.00;99989.78;5016696;28;20017;-85
2021/06/04 03:21:25;;;;;;;;;;;;;;;13.87;100.00;99984.47;5000055;28;19918;-85
2021/06/04 03:23:51;;;;;;;;;;;;;;;13.89;100.00;99980.75;5016630;28;19933;-86
2021/06/04 03:26:18;;;;;;;;;;;;;;;13.89;100.00;99978.09;5016904;28;20409;-85
2021/06/04 03:28:45;;;;;;;;;;;;;;;13.89;100.00;99972.75;5016865;28;19921;-86
2021/06/04 03:31:11;;;;;;;;;;;;;;;13.87;100.00;99979.97;5016795;28;20012;-86
2021/06/04 03:33:37;;;;;;;;;;;;;;;13.78;100.00;99980.47;5016424;28;20004;-86
2021/06/04 03:36:07;;;;;;;;;;;;;;;13.76;100.00;99991.19;5016360;28;20080;-86
2021/06/04 03:38:32;;;;;;;;;;;;;;;13.81;100.00;99988.28;5016574;28;19921;-86
2021/06/04 03:40:57;;;;;;;;;;;;;;;13.85;100.00;99992.53;5016671;28;19925;-86
2021/06/04 03:43:25;;;;;;;;;;;;;;;13.92;100.00;99998.38;5016703;28;19986;-86
2021/06/04 03:45:51;;;;;;;;;;;;;;;13.87;100.00;99995.09;4999584;28;19960;-86
2021/06/04 03:48:18;;;;;;;;;;;;;;;13.83;100.00;99993.53;5017167;28;20022;-85
2021/06/04 03:50:45;;;;;;;;;;;;;;;13.88;100.00;99997.69;5017142;28;19933;-85
2021/06/04 03:53:11;;;;;;;;;;;;;;;13.87;100.00;100003.94;5000087;28;19917;-85
2021/06/04 03:55:38;;;;;;;;;;;;;;;13.88;100.00;100007.47;5016886;28;19926;-86
2021/06/04 03:58:04;;;;;;;;;;;;;;;13.83;100.00;100005.03;4999952;28;20211;-85
2021/06/04 07:27:57;;;;;;;;;;;;;;;13.29;100.00;100039.75;5010435;28;20199;-85
2021/06/04 07:30:30;;;;;;;;;;;;;;;13.25;100.00;100040.81;5008760;28;21475;-84
2021/06/04 07:32:56;;;;;;;;;;;;;;;13.32;100.00;100046.69;5014708;28;19957;-83
2021/06/04 07:35:24;;;;;;;;;;;;;;;13.42;100.00;100048.00;5014568;28;19984;-84
2021/06/04 07:37:50;;;;;;;;;;;;;;;13.39;100.00;100057.00;4997994;28;19922;-83
2021/06/04 07:40:19;;;;;;;;;;;;;;;13.52;100.00;100051.91;4995720;28;19922;-83
2021/06/04 07:42:44;;;;;;;;;;;;;;;13.61;100.00;100047.94;4995156;28;19922;-86
2021/06/04 07:45:10;;;;;;;;;;;;;;;13.59;100.00;100044.47;5011661;28;20058;-83
2021/06/04 07:47:36;;;;;;;;;;;;;;;13.49;100.00;100043.22;5013901;28;20400;-84
2021/06/04 07:50:02;;;;;;;;;;;;;;;13.33;100.00;100049.31;5014489;28;20300;-83
2021/06/04 07:52:27;;;;;;;;;;;;;;;12.80;100.00;100050.97;5014966;28;19980;-84
2021/06/04 07:54:58;;;;;;;;;;;;;;;13.34;100.00;100050.16;4998787;28;20241;-84
2021/06/04 07:57:23;;;;;;;;;;;;;;;13.13;100.00;100044.09;5007787;28;20293;-84
2021/06/04 07:59:49;;;;;;;;;;;;;;;13.04;100.00;100040.09;5009930;28;19929;-82
2021/06/04 08:02:14;;;;;;;;;;;;;;;13.07;100.00;100045.25;5014552;28;19942;-82
2021/06/04 08:04:39;;;;;;;;;;;;;;;13.05;100.00;100041.78;5013921;28;20079;-84
2021/06/04 08:07:05;;;;;;;;;;;;;;;12.64;100.00;100039.34;5012307;28;19925;-82
2021/06/04 08:09:30;;;;;;;;;;;;;;;13.08;100.00;100041.66;4993598;28;19925;-81
2021/06/04 08:11:57;;;;;;;;;;;;;;;13.17;100.00;100030.56;5013567;28;20087;-82
2021/06/04 08:14:24;;;;;;;;;;;;;;;13.32;100.00;100036.06;5013229;28;20008;-83
2021/06/04 08:16:50;;;;;;;;;;;;;;;13.21;100.00;100044.56;5014029;28;19932;-82
2021/06/04 08:19:16;;;;;;;;;;;;;;;13.39;100.00;100042.84;5012458;28;20019;-83
2021/06/04 08:21:43;;;;;;;;;;;;;;;13.27;100.00;100045.13;5000858;28;19968;-82
2021/06/04 08:24:10;;;;;;;;;;;;;;;13.29;100.00;100037.09;5014308;28;19922;-81
2021/06/04 08:26:35;;;;;;;;;;;;;;;13.38;100.00;100036.63;5014391;28;19993;-82
2021/06/04 08:29:02;;;;;;;;;;;;;;;13.46;100.00;100041.56;5014168;28;19964;-82
2021/06/04 08:31:28;;;;;;;;;;;;;;;13.37;100.00;100034.94;5013443;28;19921;-82
2021/06/04 08:33:54;;;;;;;;;;;;;;;13.11;100.00;100033.53;5013291;28;20272;-82
2021/06/04 08:36:36;;;;;;;;;;;;;;;13.34;100.00;100026.22;5013589;28;19921;-81
2021/06/04 08:39:06;;;;;;;;;;;;;;;12.83;100.00;100031.38;5012929;28;20318;-82
2021/06/04 08:41:40;;;;;;;;;;;;;;;10.91;100.00;100028.25;5013608;28;19921;-80
2021/06/04 08:44:32;;;;;;;;;;;;;;;11.83;100.00;100015.53;5013797;28;19932;-79
2021/06/04 08:47:03;;;;;;;;;;;;;;;12.54;100.00;100015.88;5007549;28;19928;-85
2021/06/04 08:49:38;;;;;;;;;;;;;;;13.04;100.00;100018.81;5001174;28;19926;-85
2021/06/04 08:52:03;;;;;;;;;;;;;;;13.66;100.00;100023.69;5003928;28;20068;-84
2021/06/04 08:54:34;;;;;;;;;;;;;;;13.60;100.00;100020.41;4994324;28;20356;-85
2021/06/04 08:57:11;;;;;;;;;;;;;;;12.09;100.00;100025.00;5012951;28;20285;-91
2021/06/04 08:59:37;;;;;;;;;;;;;;;13.19;100.00;100026.00;4998256;28;19925;-89
2021/06/04 09:02:02;;;;;;;;;;;;;;;13.40;100.00;100017.91;5007508;28;19922;-89
2021/06/04 09:04:29;;;;;;;;;;;;;;;13.78;100.00;100007.09;4994910;28;19921;-88
2021/06/04 09:06:58;;;;;;;;;;;;;;;13.97;100.00;100007.84;4998824;28;19929;-91
2021/06/04 09:09:24;;;;;;;;;;;;;;;14.10;100.00;100013.34;4998010;28;19922;-88
2021/06/04 09:11:52;;;;;;;;;;;;;;;13.89;100.00;100010.03;5016358;28;19972;-89
2021/06/04 09:14:18;;;;;;;;;;;;;;;13.87;100.00;100005.75;5019208;28;19921;-89
2021/06/04 09:16:55;;;;;;;;;;;;;;;13.69;100.00;100021.75;5019509;28;19921;-89
2021/06/04 09:19:25;;;;;;;;;;;;;;;13.53;100.00;100012.81;5019987;28;19935;-89
2021/06/04 09:21:51;;;;;;;;;;;;;;;13.66;100.00;100024.59;5002127;28;19922;-89
2021/06/04 09:24:26;;;;;;;;;;;;;;;13.44;100.00;100017.69;4993069;28;20029;-88
2021/06/04 09:26:52;;;;;;;;;;;;;;;13.29;100.00;100014.91;5001169;28;20306;-88
2021/06/04 09:29:22;;;;;;;;;;;;;;;13.34;100.00;100007.59;5001620;28;19932;-89
2021/06/04 09:31:49;;;;;;;;;;;;;;;13.29;100.00;100004.28;4998796;28;19964;-88
2021/06/04 09:34:26;;;;;;;;;;;;;;;13.18;100.00;100008.34;4990477;28;20004;-89
2021/06/04 09:37:11;;;;;;;;;;;;;;;12.86;100.00;100016.13;5016056;28;19926;-88
2021/06/04 09:39:43;;;;;;;;;;;;;;;13.30;100.00;100001.53;5023607;28;19980;-87
2021/06/04 09:42:15;;;;;;;;;;;;;;;13.19;100.00;100004.72;5004867;28;19976;-88
2021/06/04 09:44:58;;;;;;;;;;;;;;;13.41;100.00;100004.53;5007794;28;19921;-88
2021/06/04 09:47:30;;;;;;;;;;;;;;;13.65;100.00;100006.03;4990544;28;20469;-88
2021/06/04 09:49:57;;;;;;;;;;;;;;;13.44;100.00;99999.06;5006149;28;19933;-86
2021/06/04 09:52:28;;;;;;;;;;;;;;;13.40;100.00;99996.63;5013130;28;19930;-88
2021/06/04 09:55:13;;;;;;;;;;;;;;;13.45;100.00;99989.28;4994100;28;19971;-88
2021/06/04 09:57:54;;;;;;;;;;;;;;;13.16;100.00;99978.31;5008460;28;19932;-88
2021/06/04 10:00:25;;;;;;;;;;;;;;;13.47;100.00;99990.06;4992398;28;19925;-88
2021/06/04 10:03:03;;;;;;;;;;;;;;;13.15;100.00;99984.56;5014700;28;19926;-88
2021/06/04 10:05:31;;;;;;;;;;;;;;;13.32;100.00;99977.50;4996774;28;20000;-90
2021/06/04 10:07:59;;;;;;;;;;;;;;;12.98;100.00;99995.16;5015163;28;20428;-90
2021/06/04 10:10:29;;;;;;;;;;;;;;;13.19;100.00;99988.75;4999192;28;19921;-89
2021/06/04 10:13:00;;;;;;;;;;;;;;;13.42;100.00;99989.44;4990517;28;19922;-90
2021/06/04 10:15:29;;;;;;;;;;;;;;;13.26;100.00;99995.50;4992996;28;20450;-90
2021/06/04 10:18:04;;;;;;;;;;;;;;;13.37;100.00;99983.47;4990534;28;19925;-90
2021/06/04 10:20:35;;;;;;;;;;;;;;;13.34;100.00;99980.97;4997024;28;19940;-90
2021/06/04 10:23:09;;;;;;;;;;;;;;;12.69;100.00;99985.03;5009491;28;19922;-91
2021/06/04 10:25:37;;;;;;;;;;;;;;;13.23;100.00;99976.19;5003210;28;19930;-89
2021/06/04 10:28:03;;;;;;;;;;;;;;;13.32;100.00;99972.19;5003408;28;19922;-89
2021/06/04 10:30:35;;;;;;;;;;;;;;;13.27;100.00;99962.66;4994203;28;19922;-88
2021/06/04 10:33:19;;;;;;;;;;;;;;;13.28;100.00;99958.19;4998674;28;19922;-88
2021/06/04 10:35:57;;;;;;;;;;;;;;;13.10;100.00;99944.03;4992177;28;20391;-89
2021/06/04 10:38:53;;;;;;;;;;;;;;;13.21;100.00;99951.44;5003206;28;19993;-89
2021/06/04 10:41:44;;;;;;;;;;;;;;;13.14;100.00;99948.22;4989785;28;20237;-89
2021/06/04 10:44:26;;;;;;;;;;;;;;;13.14;100.00;99948.22;4985411;28;19921;-89
2021/06/04 10:46:55;;;;;;;;;;;;;;;13.24;100.00;99945.97;4988806;28;19921;-89
2021/06/04 10:49:23;;;;;;;;;;;;;;;12.26;100.00;99947.22;5008087;28;19928;-89
2021/06/04 10:51:58;;;;;;;;;;;;;;;13.06;100.00;99951.28;5007799;28;19936;-89
2021/06/04 10:54:25;;;;;;;;;;;;;;;13.12;100.00;99950.13;5005083;28;19940;-90
2021/06/04 10:57:04;;;;;;;;;;;;;;;13.23;100.00;99947.78;4995164;28;19930;-90
2021/06/04 10:59:49;;;;;;;;;;;;;;;12.81;100.00;99940.16;5012963;28;19973;-89
2021/06/04 11:02:33;;;;;;;;;;;;;;;13.03;100.00;99937.28;4985971;28;20013;-90
2021/06/04 11:05:14;;;;;;;;;;;;;;;13.25;100.00;99934.38;5004562;28;20260;-89
2021/06/04 11:07:47;;;;;;;;;;;;;;;13.34;100.00;99928.63;5000947;28;19922;-89
2021/06/04 11:10:24;;;;;;;;;;;;;;;13.06;100.00;99932.66;5012527;28;19932;-89
2021/06/04 11:13:08;;;;;;;;;;;;;;;13.26;100.00;99915.69;5012451;28;19922;-91
2021/06/04 11:15:37;;;;;;;;;;;;;;;12.60;100.00;99913.69;5005133;28;19929;-88
2021/06/04 11:18:05;;;;;;;;;;;;;;;12.78;100.00;99919.91;4989236;28;20065;-89
2021/06/04 11:20:37;;;;;;;;;;;;;;;12.43;100.00;99916.31;4992105;28;19932;-87
2021/06/04 11:23:15;;;;;;;;;;;;;;;11.40;100.00;99911.28;4995136;28;19933;-88
2021/06/04 11:25:52;;;;;;;;;;;;;;;10.94;100.00;99913.28;4990560;28;19969;-88
2021/06/04 11:28:28;;;;;;;;;;;;;;;12.60;100.00;99905.72;4983356;28;19929;-90
2021/06/04 11:30:56;;;;;;;;;;;;;;;12.21;100.00;99906.72;4985651;28;20013;-89
2021/06/04 11:33:33;;;;;;;;;;;;;;;12.38;100.00;99900.63;4989044;28;20494;-88
2021/06/04 11:36:16;;;;;;;;;;;;;;;12.31;100.00;99899.19;5002982;28;19931;-91
2021/06/04 11:38:47;;;;;;;;;;;;;;;12.91;100.00;99890.91;5007494;28;19993;-89
2021/06/04 11:41:16;;;;;;;;;;;;;;;12.69;100.00;99886.66;5012411;28;19976;-91
2021/06/04 11:43:45;;;;;;;;;;;;;;;12.07;100.00;99886.13;5000873;28;19922;-91
2021/06/04 11:46:14;;;;;;;;;;;;;;;12.17;100.00;99881.22;4986655;28;19972;-91
2021/06/04 11:48:44;;;;;;;;;;;;;;;12.49;100.00;99866.41;5005656;28;19921;-91
2021/06/04 11:51:18;;;;;;;;;;;;;;;12.90;100.00;99873.22;5006335;28;20293;-89
2021/06/04 11:53:50;;;;;;;;;;;;;;;11.95;100.00;99881.38;5002179;28;20515;-91
2021/06/04 11:56:34;;;;;;;;;;;;;;;11.23;100.00;99877.53;5011858;28;19937;-89
2021/06/04 11:59:02;;;;;;;;;;;;;;;12.48;100.00;99880.63;4983226;28;19957;-90
2021/06/04 12:01:37;;;;;;;;;;;;;;;12.78;100.00;99879.16;4987778;28;19972;-90
2021/06/04 12:04:02;;;;;;;;;;;;;;;10.92;100.00;99872.72;4999462;28;19926;-89
2021/06/04 12:06:37;;;;;;;;;;;;;;;10.16;100.00;99883.72;4989520;28;19932;-90
2021/06/04 12:09:23;;;;;;;;;;;;;;;12.60;100.00;99878.28;4981168;28;19921;-92
2021/06/04 12:11:50;;;;;;;;;;;;;;;12.32;100.00;99879.66;4983826;28;19930;-91
2021/06/04 12:14:19;;;;;;;;;;;;;;;12.86;100.00;99867.19;4986519;28;21397;-90
2021/06/04 12:16:47;;;;;;;;;;;;;;;11.96;100.00;99853.91;4980890;28;19940;-91
2021/06/04 12:19:27;;;;;;;;;;;;;;;12.74;100.00;99864.31;5004914;28;19933;-90
2021/06/04 12:22:26;;;;;;;;;;;;;;;12.29;100.00;99859.41;4984990;28;20016;-92
2021/06/04 12:24:54;;;;;;;;;;;;;;;12.76;100.00;99862.44;4975401;28;20004;-90
2021/06/04 12:27:24;;;;;;;;;;;;;;;13.18;100.00;99856.69;4992232;28;19932;-91
2021/06/04 12:30:06;;;;;;;;;;;;;;;13.22;100.00;99844.09;5006745;28;19941;-89
2021/06/04 12:32:56;;;;;;;;;;;;;;;12.78;100.00;99842.81;5001666;28;19941;-90
2021/06/04 12:35:56;;;;;;;;;;;;;;;13.24;100.00;99839.53;5000456;28;19926;-89
2021/06/04 12:38:26;;;;;;;;;;;;;;;12.63;100.00;99840.91;4956986;28;20090;-89
2021/06/04 12:40:52;;;;;;;;;;;;;;;10.93;100.00;99834.66;5002726;28;19921;-90
2021/06/04 12:43:20;;;;;;;;;;;;;;;12.16;100.00;99831.72;5007058;28;19960;-90
2021/06/04 12:45:55;;;;;;;;;;;;;;;12.42;100.00;99829.56;5008155;28;19932;-91
2021/06/04 12:48:24;;;;;;;;;;;;;;;12.29;100.00;99826.66;5001068;28;19929;-89
2021/06/04 12:50:56;;;;;;;;;;;;;;;11.91;100.00;99824.88;5014816;28;19922;-91
2021/06/04 12:53:32;;;;;;;;;;;;;;;11.01;100.00;99832.53;4982598;28;19922;-92
2021/06/04 12:56:16;;;;;;;;;;;;;;;11.69;100.00;99822.38;4994084;28;20311;-92
2021/06/04 12:58:47;;;;;;;;;;;;;;;12.21;100.00;99824.38;5010068;28;19969;-94
2021/06/04 13:01:13;;;;;;;;;;;;;;;10.67;100.00;99820.75;4998987;28;19922;-90
2021/06/04 13:03:42;;;;;;;;;;;;;;;10.98;100.00;99817.66;4992230;28;19940;-90
2021/06/04 13:06:12;;;;;;;;;;;;;;;11.27;100.00;99813.69;4988150;28;20359;-92
2021/06/04 13:08:38;;;;;;;;;;;;;;;11.06;100.00;99818.16;5007301;28;20299;-89
2021/06/04 13:11:05;;;;;;;;;;;;;;;11.96;100.00;99814.94;5015306;28;19933;-91
2021/06/04 13:13:32;;;;;;;;;;;;;;;12.26;100.00;99816.19;4992586;28;19925;-91
2021/06/04 13:16:13;;;;;;;;;;;;;;;12.37;100.00;99808.53;4989153;28;19925;-90
2021/06/04 13:18:38;;;;;;;;;;;;;;;12.41;100.00;99798.63;5014743;28;20024;-90
2021/06/04 13:21:18;;;;;;;;;;;;;;;10.38;100.00;99804.31;5000853;28;19973;-91
2021/06/04 13:23:56;;;;;;;;;;;;;;;11.24;100.00;99803.22;4995684;28;20011;-91
2021/06/04 13:26:26;;;;;;;;;;;;;;;11.82;100.00;99783.72;4988759;28;19926;-93
2021/06/04 13:28:57;;;;;;;;;;;;;;;11.29;100.00;99787.09;4990042;28;19957;-89
2021/06/04 13:31:25;;;;;;;;;;;;;;;11.37;100.00;99778.78;5005450;28;20512;-89
2021/06/04 13:34:04;;;;;;;;;;;;;;;10.65;100.00;99778.41;4988493;28;19921;-91
2021/06/04 13:36:32;;;;;;;;;;;;;;;10.47;100.00;99777.44;4987681;28;20446;-90
2021/06/04 13:39:06;;;;;;;;;;;;;;;9.99;100.00;99776.72;5006414;28;20236;-92
2021/06/04 13:41:37;;;;;;;;;;;;;;;10.63;100.00;99766.19;4989510;28;20379;-90
2021/06/04 13:44:04;;;;;;;;;;;;;;;11.79;100.00;99761.75;4995395;28;21094;-91
2021/06/04 13:46:42;;;;;;;;;;;;;;;11.63;100.00;99758.97;4990606;28;19956;-91
2021/06/04 13:49:10;;;;;;;;;;;;;;;11.89;100.00;99752.44;5018127;28;20401;-90
2021/06/04 13:51:40;;;;;;;;;;;;;;;12.21;100.00;99757.13;5015929;28;19932;-90
2021/06/04 13:54:20;;;;;;;;;;;;;;;12.46;100.00;99759.38;4996611;28;20012;-90
2021/06/04 13:56:46;;;;;;;;;;;;;;;12.57;100.00;99761.50;5002749;28;19922;-91
2021/06/04 13:59:12;;;;;;;;;;;;;;;12.25;100.00;99754.22;4990143;28;20406;-89
2021/06/04 14:01:55;;;;;;;;;;;;;;;9.73;100.00;99767.19;4991853;28;19921;-92
2021/06/04 14:04:41;;;;;;;;;;;;;;;11.34;100.00;99755.06;5011090;28;19961;-90
2021/06/04 14:07:26;;;;;;;;;;;;;;;11.95;100.00;99759.25;4997168;28;19932;-90
2021/06/04 14:09:53;;;;;;;;;;;;;;;11.66;100.00;99758.81;4988432;28;19921;-89
2021/06/04 14:12:18;;;;;;;;;;;;;;;12.39;100.00;99761.50;5008168;28;19929;-82
2021/06/04 14:14:47;;;;;;;;;;;;;;;12.82;100.00;99758.41;4986034;28;19988;-82
2021/06/04 14:17:18;;;;;;;;;;;;;;;12.15;100.00;99767.09;5005095;28;19976;-81
2021/06/04 14:19:51;;;;;;;;;;;;;;;12.51;100.00;99758.22;4983918;28;19932;-82
2021/06/04 14:22:35;;;;;;;;;;;;;;;12.73;100.00;99762.41;5001933;28;19926;-82
2021/06/04 14:25:01;;;;;;;;;;;;;;;12.40;100.00;99751.72;4989920;28;19925;-81
2021/06/04 14:27:26;;;;;;;;;;;;;;;13.30;100.00;99739.91;5001366;28;20020;-82
2021/06/04 14:29:57;;;;;;;;;;;;;;;12.92;100.00;99742.84;5006078;28;20032;-81
2021/06/04 14:32:24;;;;;;;;;;;;;;;11.87;100.00;99740.16;4984092;28;20213;-83
2021/06/04 14:35:09;;;;;;;;;;;;;;;12.40;100.00;99739.31;4997302;28;19997;-82
2021/06/04 14:37:45;;;;;;;;;;;;;;;13.22;100.00;99727.88;5003745;28;19929;-82
2021/06/04 14:40:12;;;;;;;;;;;;;;;13.20;100.00;99732.44;5003382;28;20755;-83
2021/06/04 14:42:38;;;;;;;;;;;;;;;13.17;100.00;99729.94;5005527;28;19930;-82
2021/06/04 14:45:04;;;;;;;;;;;;;;;13.29;100.00;99724.88;5004296;28;19936;-84
2021/06/04 14:47:34;;;;;;;;;;;;;;;12.89;100.00;99719.91;5002146;28;20170;-82
2021/06/04 14:50:00;;;;;;;;;;;;;;;13.29;100.00;99719.56;5000155;28;19929;-83
2021/06/04 14:52:25;;;;;;;;;;;;;;;13.78;100.00;99715.00;5005615;28;20383;-85
2021/06/04 14:54:52;;;;;;;;;;;;;;;13.90;100.00;99710.81;5001623;28;20281;-83
2021/06/04 14:57:18;;;;;;;;;;;;;;;13.41;100.00;99708.28;5005642;28;19933;-84
2021/06/04 14:59:44;;;;;;;;;;;;;;;13.17;100.00;99713.97;4999280;28;19926;-82
2021/06/04 15:02:13;;;;;;;;;;;;;;;12.73;100.00;99722.53;5003125;28;20260;-84
2021/06/04 15:04:38;;;;;;;;;;;;;;;12.17;100.00;99721.88;4999832;28;19936;-82
2021/06/04 15:07:04;;;;;;;;;;;;;;;11.97;100.00;99728.19;5008939;28;19930;-82
2021/06/04 15:09:29;;;;;;;;;;;;;;;12.23;100.00;99726.88;5000929;28;20004;-83
2021/06/04 15:11:55;;;;;;;;;;;;;;;12.75;100.00;99714.47;4993581;28;19921;-82
2021/06/04 15:14:21;;;;;;;;;;;;;;;12.24;100.00;99725.06;5001045;28;19930;-80
2021/06/04 15:16:46;;;;;;;;;;;;;;;10.89;100.00;99719.97;4987335;28;20392;-82
2021/06/04 15:19:12;;;;;;;;;;;;;;;12.04;100.00;99720.78;4981915;28;19933;-80
2021/06/04 15:21:39;;;;;;;;;;;;;;;13.05;100.00;99719.94;5000636;28;19930;-82
2021/06/04 15:24:05;;;;;;;;;;;;;;;12.64;100.00;99718.56;5000928;28;19922;-82
2021/06/04 15:26:31;;;;;;;;;;;;;;;12.72;100.00;99713.69;4997165;28;20005;-82
2021/06/04 15:28:57;;;;;;;;;;;;;;;12.09;100.00;99711.63;5006107;28;19929;-84
2021/06/04 15:31:23;;;;;;;;;;;;;;;11.00;100.00;99706.22;4982722;28;19969;-82
2021/06/04 15:33:50;;;;;;;;;;;;;;;11.49;100.00;99709.22;4983759;28;19922;-82
2021/06/04 15:36:17;;;;;;;;;;;;;;;11.90;100.00;99709.03;4997095;28;19926;-85
2021/06/04 15:38:43;;;;;;;;;;;;;;;12.94;100.00;99701.06;5009036;28;19936;-80
2021/06/04 15:41:09;;;;;;;;;;;;;;;13.52;100.00;99691.72;5000834;28;20377;-83
2021/06/04 15:43:35;;;;;;;;;;;;;;;13.63;100.00;99684.81;5003147;28;20433;-83
2021/06/04 15:46:00;;;;;;;;;;;;;;;13.39;100.00;99692.38;4998764;28;19929;-83
2021/06/04 15:48:26;;;;;;;;;;;;;;;12.78;100.00;99691.25;4997024;28;19925;-82
2021/06/04 15:50:52;;;;;;;;;;;;;;;13.53;100.00;99680.97;4981106;28;20544;-83
2021/06/04 15:53:19;;;;;;;;;;;;;;;12.48;100.00;99686.63;4996134;28;19929;-83
2021/06/04 15:55:47;;;;;;;;;;;;;;;13.49;100.00;99687.41;4984890;28;19975;-82
2021/06/04 15:58:13;;;;;;;;;;;;;;;12.84;100.00;99700.69;5004314;28;19989;-82
2021/06/04 16:00:38;;;;;;;;;;;;;;;13.63;100.00;99695.47;5003041;28;20011;-83
2021/06/04 16:03:05;;;;;;;;;;;;;;;12.82;100.00;99703.44;5002385;28;19953;-83
2021/06/04 16:05:36;;;;;;;;;;;;;;;12.41;100.00;99713.59;4981744;28;19922;-83
2021/06/04 16:08:02;;;;;;;;;;;;;;;12.02;100.00;99718.19;4984821;28;19953;-83
2021/06/04 16:10:29;;;;;;;;;;;;;;;13.22;100.00;99713.72;5001192;28;19926;-83
2021/06/04 16:12:56;;;;;;;;;;;;;;;13.50;100.00;99707.75;4998913;28;19921;-84
2021/06/04 16:15:22;;;;;;;;;;;;;;;13.17;100.00;99713.13;4980787;28;19968;-84
2021/06/04 16:17:48;;;;;;;;;;;;;;;13.54;100.00;99711.09;4998136;28;20044;-83
2021/06/04 16:20:14;;;;;;;;;;;;;;;13.77;100.00;99728.44;4982314;28;20551;-82
2021/06/04 16:22:41;;;;;;;;;;;;;;;13.81;100.00;99728.16;5000368;28;19957;-84
2021/06/04 16:25:09;;;;;;;;;;;;;;;13.71;100.00;99740.28;4991917;28;20386;-84
2021/06/04 16:27:36;;;;;;;;;;;;;;;13.29;100.00;99744.38;5008213;28;20268;-87
2021/06/04 16:30:05;;;;;;;;;;;;;;;13.41;100.00;99746.38;5002738;28;19925;-85
2021/06/04 16:32:35;;;;;;;;;;;;;;;13.63;100.00;99746.03;5007820;28;19925;-85
2021/06/04 16:35:12;;;;;;;;;;;;;;;13.47;100.00;99749.66;5002793;28;20024;-85
2021/06/04 16:37:41;;;;;;;;;;;;;;;13.06;100.00;99756.25;4987865;28;19943;-84
2021/06/04 16:40:07;;;;;;;;;;;;;;;13.51;100.00;99757.38;4983935;28;20183;-84
2021/06/04 16:42:35;;;;;;;;;;;;;;;13.57;100.00;99764.16;4988261;28;19984;-84
2021/06/04 16:45:03;;;;;;;;;;;;;;;13.06;100.00;99767.75;4986162;28;19928;-85
2021/06/04 16:47:29;;;;;;;;;;;;;;;13.48;100.00;99776.16;5005636;28;20029;-85
2021/06/04 16:49:58;;;;;;;;;;;;;;;13.50;100.00;99768.97;5011083;28;20020;-85
2021/06/04 16:52:25;;;;;;;;;;;;;;;13.60;100.00;99782.63;4989704;28;19922;-86
2021/06/04 16:54:51;;;;;;;;;;;;;;;12.06;100.00;99825.13;4987342;28;19925;-84
2021/06/04 16:57:18;;;;;;;;;;;;;;;13.20;100.00;99841.50;4985666;28;19996;-85
2021/06/04 16:59:45;;;;;;;;;;;;;;;13.94;100.00;99829.53;4987688;28;20029;-85
2021/06/04 17:02:12;;;;;;;;;;;;;;;13.88;100.00;99821.03;4981525;28;19961;-86
2021/06/04 17:04:38;;;;;;;;;;;;;;;13.29;100.00;99840.16;4989969;28;19954;-85
2021/06/04 17:07:05;;;;;;;;;;;;;;;13.39;100.00;99848.56;5007263;28;19931;-84
2021/06/04 17:09:31;;;;;;;;;;;;;;;13.65;100.00;99840.94;5010307;28;19949;-83
2021/06/04 17:11:58;;;;;;;;;;;;;;;13.41;100.00;99847.50;4992486;28;19929;-84
2021/06/04 17:14:24;;;;;;;;;;;;;;;12.82;100.00;99843.50;5007915;28;20528;-84
2021/06/04 17:16:49;;;;;;;;;;;;;;;13.79;100.00;99849.03;5005283;28;19928;-84
2021/06/04 17:19:16;;;;;;;;;;;;;;;11.82;100.00;99868.69;4987346;28;20048;-82
2021/06/04 17:21:45;;;;;;;;;;;;;;;12.58;100.00;99883.69;4985011;28;19921;-83
2021/06/04 17:24:11;;;;;;;;;;;;;;;12.01;100.00;99885.56;5006318;28;19921;-85
2021/06/04 17:26:37;;;;;;;;;;;;;;;12.53;100.00;99883.91;5004569;28;19977;-84
2021/06/04 17:29:04;;;;;;;;;;;;;;;13.46;100.00;99895.19;5003556;28;19975;-83
2021/06/04 17:31:30;;;;;;;;;;;;;;;13.46;100.00;99892.50;5004182;28;19929;-82
2021/06/04 17:33:58;;;;;;;;;;;;;;;13.49;100.00;99880.84;5005022;28;20004;-84
2021/06/04 17:36:24;;;;;;;;;;;;;;;13.80;100.00;99880.03;5002800;28;20407;-84
2021/06/04 17:38:51;;;;;;;;;;;;;;;13.70;100.00;99865.53;4999154;28;19922;-83
2021/06/04 17:41:18;;;;;;;;;;;;;;;13.73;100.00;99860.88;5005389;28;19933;-84
2021/06/04 17:43:44;;;;;;;;;;;;;;;13.88;100.00;99858.31;5006629;28;19921;-84
2021/06/04 17:46:10;;;;;;;;;;;;;;;13.88;100.00;99852.97;5003465;28;19922;-85
2021/06/04 17:48:36;;;;;;;;;;;;;;;13.84;100.00;99862.09;4984813;28;19935;-85
2021/06/04 17:51:09;;;;;;;;;;;;;;;13.69;100.00;99877.97;5007898;28;20300;-84
2021/06/04 17:53:35;;;;;;;;;;;;;;;13.90;100.00;99886.59;5004776;28;19953;-86
2021/06/04 17:56:02;;;;;;;;;;;;;;;13.90;100.00;99889.25;5002773;28;19921;-84
2021/06/04 17:58:28;;;;;;;;;;;;;;;13.89;100.00;99894.66;5003532;28;19929;-85
2021/06/04 18:00:57;;;;;;;;;;;;;;;13.90;100.00;99909.72;4983294;28;19956;-83
2021/06/04 18:03:24;;;;;;;;;;;;;;;13.93;100.00;99907.75;4997910;28;20274;-84
2021/06/04 18:05:52;;;;;;;;;;;;;;;13.92;100.00;99918.47;4990516;28;20292;-84
2021/06/04 18:08:25;;;;;;;;;;;;;;;13.82;100.00;99931.44;4981565;28;19931;-86
2021/06/04 18:10:51;;;;;;;;;;;;;;;13.85;100.00;99939.25;4986610;28;19922;-84
2021/06/04 18:13:19;;;;;;;;;;;;;;;13.85;100.00;99939.25;5003019;28;19925;-85
2021/06/04 18:15:48;;;;;;;;;;;;;;;13.76;100.00;99966.38;5004042;28;20245;-85
2021/06/04 18:18:14;;;;;;;;;;;;;;;13.72;100.00;99965.69;5002818;28;20422;-85
2021/06/04 18:20:41;;;;;;;;;;;;;;;13.71;100.00;99966.63;4986083;28;20498;-85
2021/06/04 18:23:08;;;;;;;;;;;;;;;13.71;100.00;99957.78;4978362;28;19937;-85
2021/06/04 18:25:36;;;;;;;;;;;;;;;13.66;100.00;99939.38;5001128;28;20301;-86